AAL1791 KDFW-KATL
Flight info
| Callsign | AAL1791 |
|---|---|
| Flight time | 1h 24m |
| Altitude | 37000 |
| Route | TRYTN4 LOOSE DCT MEMFS DCT HUTCC DCT KNSAW DCT RUSSA GLAVN2 |
| Aircraft | B38M/M-VGDW/C |
Departure
| Time | 2026-05-07 18:27 |
|---|---|
| Airport | Dallas Fort Worth International Airport (KDFW) |
Arrival
| Time | 2026-05-07 19:52 |
|---|---|
| Airport | Hartsfield Jackson Atlanta International Airport (KATL) |
| Time | Latitude | Longitude | Altitude | Speed | Heading |
|---|---|---|---|---|---|
| 2026-05-07 18:09 | 32.89665 | -97.04566 | 624 ft | 0 kts | 89° |
| 2026-05-07 18:19 | 32.89665 | -97.04576 | 628 ft | 4 kts | 89° |
| 2026-05-07 18:19 | 32.89664 | -97.04608 | 632 ft | 4 kts | 89° |
| 2026-05-07 18:19 | 32.89667 | -97.04639 | 629 ft | 4 kts | 111° |
| 2026-05-07 18:19 | 32.89681 | -97.04663 | 624 ft | 4 kts | 151° |
| 2026-05-07 18:20 | 32.89698 | -97.04668 | 627 ft | 1 kts | 180° |
| 2026-05-07 18:20 | 32.89701 | -97.04668 | 625 ft | 0 kts | 180° |
| 2026-05-07 18:22 | 32.89636 | -97.04669 | 625 ft | 18 kts | 180° |
| 2026-05-07 18:22 | 32.89448 | -97.04670 | 625 ft | 35 kts | 180° |
| 2026-05-07 18:23 | 32.89216 | -97.04672 | 625 ft | 31 kts | 180° |
| 2026-05-07 18:23 | 32.89000 | -97.04673 | 624 ft | 27 kts | 180° |
| 2026-05-07 18:23 | 32.88897 | -97.04715 | 622 ft | 12 kts | 248° |
| 2026-05-07 18:23 | 32.88829 | -97.04771 | 624 ft | 14 kts | 184° |
| 2026-05-07 18:24 | 32.88699 | -97.04772 | 623 ft | 24 kts | 180° |
| 2026-05-07 18:24 | 32.88511 | -97.04781 | 618 ft | 29 kts | 202° |
| 2026-05-07 18:24 | 32.88310 | -97.04808 | 625 ft | 31 kts | 179° |
| 2026-05-07 18:24 | 32.88090 | -97.04810 | 623 ft | 33 kts | 180° |
| 2026-05-07 18:25 | 32.87927 | -97.04833 | 621 ft | 19 kts | 224° |
| 2026-05-07 18:25 | 32.87907 | -97.04953 | 626 ft | 15 kts | 271° |
| 2026-05-07 18:25 | 32.87907 | -97.05030 | 620 ft | 9 kts | 270° |
| 2026-05-07 18:25 | 32.87939 | -97.05091 | 618 ft | 10 kts | 348° |
| 2026-05-07 18:26 | 32.87958 | -97.05091 | 623 ft | 0 kts | 1° |
| 2026-05-07 18:26 | 32.87966 | -97.05091 | 621 ft | 9 kts | 1° |
| 2026-05-07 18:26 | 32.88323 | -97.05088 | 621 ft | 91 kts | 0° |
| 2026-05-07 18:26 | 32.89191 | -97.05083 | 634 ft | 154 kts | 0° |
| 2026-05-07 18:27 | 32.90333 | -97.05073 | 1152 ft | 168 kts | 2° |
| 2026-05-07 18:27 | 32.91474 | -97.04948 | 2044 ft | 160 kts | 11° |
| 2026-05-07 18:27 | 32.92619 | -97.04732 | 2643 ft | 178 kts | 8° |
| 2026-05-07 18:27 | 32.93931 | -97.04518 | 3090 ft | 202 kts | 8° |
| 2026-05-07 18:28 | 32.95397 | -97.04286 | 3517 ft | 222 kts | 8° |
| 2026-05-07 18:28 | 32.96999 | -97.04047 | 4004 ft | 242 kts | 7° |
| 2026-05-07 18:28 | 32.98750 | -97.03797 | 4590 ft | 263 kts | 6° |
| 2026-05-07 18:28 | 33.00537 | -97.03539 | 5840 ft | 259 kts | 5° |
| 2026-05-07 18:29 | 33.02360 | -97.03275 | 6728 ft | 270 kts | 3° |
| 2026-05-07 18:29 | 33.04267 | -97.02992 | 7553 ft | 280 kts | 6° |
| 2026-05-07 18:29 | 33.06102 | -97.02110 | 8471 ft | 294 kts | 31° |
| 2026-05-07 18:29 | 33.07505 | -97.00267 | 9332 ft | 310 kts | 59° |
| 2026-05-07 18:30 | 33.08134 | -96.97776 | 10157 ft | 322 kts | 85° |
| 2026-05-07 18:30 | 33.08245 | -96.95085 | 10740 ft | 337 kts | 86° |
| 2026-05-07 18:30 | 33.08156 | -96.92259 | 11390 ft | 347 kts | 101° |
| 2026-05-07 18:30 | 33.07728 | -96.89380 | 12145 ft | 356 kts | 101° |
| 2026-05-07 18:31 | 33.07309 | -96.86449 | 13017 ft | 362 kts | 101° |
| 2026-05-07 18:31 | 33.06876 | -96.83459 | 13852 ft | 370 kts | 104° |
| 2026-05-07 18:31 | 33.06037 | -96.80553 | 14656 ft | 372 kts | 117° |
| 2026-05-07 18:31 | 33.05033 | -96.77688 | 15500 ft | 377 kts | 116° |
| 2026-05-07 18:32 | 33.04026 | -96.74775 | 16355 ft | 382 kts | 116° |
| 2026-05-07 18:32 | 33.03012 | -96.71827 | 17192 ft | 387 kts | 116° |
| 2026-05-07 18:32 | 33.01986 | -96.68842 | 18006 ft | 392 kts | 116° |
| 2026-05-07 18:32 | 33.00942 | -96.65809 | 18739 ft | 397 kts | 116° |
| 2026-05-07 18:33 | 32.99888 | -96.62750 | 19420 ft | 402 kts | 116° |
| 2026-05-07 18:33 | 32.98819 | -96.59647 | 20078 ft | 407 kts | 116° |
| 2026-05-07 18:33 | 32.97734 | -96.56502 | 20730 ft | 413 kts | 117° |
| 2026-05-07 18:33 | 32.96637 | -96.53323 | 21366 ft | 418 kts | 117° |
| 2026-05-07 18:34 | 32.95524 | -96.50103 | 21998 ft | 423 kts | 117° |
| 2026-05-07 18:34 | 32.94592 | -96.46751 | 22599 ft | 433 kts | 101° |
| 2026-05-07 18:34 | 32.94635 | -96.43157 | 23260 ft | 438 kts | 76° |
| 2026-05-07 18:34 | 32.95688 | -96.39767 | 23753 ft | 439 kts | 59° |
| 2026-05-07 18:35 | 32.96941 | -96.36421 | 24212 ft | 446 kts | 66° |
| 2026-05-07 18:35 | 32.98045 | -96.32943 | 24692 ft | 452 kts | 67° |
| 2026-05-07 18:35 | 32.99119 | -96.29452 | 25123 ft | 458 kts | 68° |
| 2026-05-07 18:35 | 33.00200 | -96.25872 | 25597 ft | 462 kts | 68° |
| 2026-05-07 18:36 | 33.01281 | -96.22247 | 26039 ft | 467 kts | 69° |
| 2026-05-07 18:36 | 33.02371 | -96.18575 | 26474 ft | 472 kts | 69° |
| 2026-05-07 18:36 | 33.03469 | -96.14873 | 26904 ft | 477 kts | 69° |
| 2026-05-07 18:36 | 33.04579 | -96.11126 | 27348 ft | 482 kts | 69° |
| 2026-05-07 18:37 | 33.05699 | -96.07339 | 27767 ft | 487 kts | 70° |
| 2026-05-07 18:37 | 33.06828 | -96.03515 | 28190 ft | 491 kts | 70° |
| 2026-05-07 18:37 | 33.07966 | -95.99659 | 28605 ft | 496 kts | 70° |
| 2026-05-07 18:37 | 33.09114 | -95.95763 | 29016 ft | 500 kts | 70° |
| 2026-05-07 18:38 | 33.10271 | -95.91833 | 29424 ft | 505 kts | 70° |
| 2026-05-07 18:38 | 33.11437 | -95.87866 | 29816 ft | 509 kts | 70° |
| 2026-05-07 18:38 | 33.12612 | -95.83862 | 30226 ft | 514 kts | 71° |
| 2026-05-07 18:38 | 33.13797 | -95.79818 | 30568 ft | 517 kts | 71° |
| 2026-05-07 18:39 | 33.14987 | -95.75753 | 30941 ft | 520 kts | 71° |
| 2026-05-07 18:39 | 33.16181 | -95.71668 | 31309 ft | 523 kts | 71° |
| 2026-05-07 18:39 | 33.17379 | -95.67562 | 31671 ft | 526 kts | 71° |
| 2026-05-07 18:39 | 33.18584 | -95.63427 | 32028 ft | 529 kts | 71° |
| 2026-05-07 18:40 | 33.19793 | -95.59272 | 32380 ft | 531 kts | 71° |
| 2026-05-07 18:40 | 33.21008 | -95.55092 | 32732 ft | 534 kts | 71° |
| 2026-05-07 18:40 | 33.22230 | -95.50885 | 33070 ft | 537 kts | 71° |
| 2026-05-07 18:40 | 33.23453 | -95.46663 | 33415 ft | 540 kts | 71° |
| 2026-05-07 18:41 | 33.24685 | -95.42408 | 33745 ft | 543 kts | 71° |
| 2026-05-07 18:41 | 33.25920 | -95.38132 | 34085 ft | 545 kts | 71° |
| 2026-05-07 18:41 | 33.27158 | -95.33844 | 34375 ft | 548 kts | 71° |
| 2026-05-07 18:41 | 33.28401 | -95.29530 | 34669 ft | 550 kts | 71° |
| 2026-05-07 18:42 | 33.29648 | -95.25198 | 34953 ft | 552 kts | 71° |
| 2026-05-07 18:42 | 33.30898 | -95.20847 | 35238 ft | 554 kts | 71° |
| 2026-05-07 18:42 | 33.32151 | -95.16481 | 35514 ft | 557 kts | 71° |
| 2026-05-07 18:42 | 33.33406 | -95.12099 | 35813 ft | 558 kts | 71° |
| 2026-05-07 18:43 | 33.34663 | -95.07708 | 36165 ft | 558 kts | 71° |
| 2026-05-07 18:43 | 33.35919 | -95.03317 | 36519 ft | 558 kts | 70° |
| 2026-05-07 18:43 | 33.37171 | -94.98931 | 36849 ft | 558 kts | 70° |
| 2026-05-07 18:43 | 33.38423 | -94.94534 | 37114 ft | 559 kts | 70° |
| 2026-05-07 18:44 | 33.39678 | -94.90112 | 37154 ft | 564 kts | 70° |
| 2026-05-07 18:44 | 33.42226 | -94.81118 | 37119 ft | 576 kts | 70° |
| 2026-05-07 18:45 | 33.44784 | -94.72068 | 37124 ft | 578 kts | 70° |
| 2026-05-07 18:45 | 33.47355 | -94.62948 | 37125 ft | 578 kts | 70° |
| 2026-05-07 18:46 | 33.49923 | -94.53809 | 37127 ft | 579 kts | 70° |
| 2026-05-07 18:46 | 33.52484 | -94.44666 | 37128 ft | 579 kts | 70° |
| 2026-05-07 18:47 | 33.55041 | -94.35506 | 37128 ft | 580 kts | 70° |
| 2026-05-07 18:47 | 33.57594 | -94.26334 | 37133 ft | 580 kts | 70° |
| 2026-05-07 18:48 | 33.60142 | -94.17149 | 37131 ft | 581 kts | 70° |
| 2026-05-07 18:48 | 33.62685 | -94.07952 | 37133 ft | 581 kts | 71° |
| 2026-05-07 18:49 | 33.65224 | -93.98737 | 37134 ft | 581 kts | 71° |
| 2026-05-07 18:49 | 33.67756 | -93.89521 | 37133 ft | 582 kts | 71° |
| 2026-05-07 18:50 | 33.70283 | -93.80291 | 37128 ft | 582 kts | 71° |
| 2026-05-07 18:50 | 33.72804 | -93.71052 | 37129 ft | 582 kts | 71° |
| 2026-05-07 18:51 | 33.75321 | -93.61797 | 37130 ft | 583 kts | 71° |
| 2026-05-07 18:51 | 33.77818 | -93.52586 | 37127 ft | 583 kts | 71° |
| 2026-05-07 18:52 | 33.80324 | -93.43310 | 37128 ft | 584 kts | 71° |
| 2026-05-07 18:52 | 33.82825 | -93.34020 | 37127 ft | 584 kts | 71° |
| 2026-05-07 18:52 | 33.83873 | -93.29309 | 37113 ft | 584 kts | 82° |
| 2026-05-07 18:53 | 33.84443 | -93.24474 | 37126 ft | 585 kts | 81° |
| 2026-05-07 18:53 | 33.85916 | -93.14853 | 37138 ft | 585 kts | 79° |
| 2026-05-07 18:54 | 33.87447 | -93.05222 | 37138 ft | 586 kts | 79° |
| 2026-05-07 18:54 | 33.88973 | -92.95593 | 37137 ft | 586 kts | 79° |
| 2026-05-07 18:55 | 33.90483 | -92.86017 | 37135 ft | 586 kts | 79° |
| 2026-05-07 18:55 | 33.91995 | -92.76378 | 37123 ft | 587 kts | 79° |
| 2026-05-07 18:56 | 33.93501 | -92.66715 | 37122 ft | 587 kts | 79° |
| 2026-05-07 18:56 | 33.95001 | -92.57048 | 37125 ft | 587 kts | 79° |
| 2026-05-07 18:57 | 33.96494 | -92.47372 | 37130 ft | 588 kts | 79° |
| 2026-05-07 18:57 | 33.97730 | -92.39323 | 37124 ft | 588 kts | 79° |
| 2026-05-07 18:58 | 33.99211 | -92.29629 | 37114 ft | 588 kts | 79° |
| 2026-05-07 18:58 | 34.00683 | -92.19935 | 37133 ft | 588 kts | 79° |
| 2026-05-07 18:59 | 34.02150 | -92.10230 | 37124 ft | 589 kts | 79° |
| 2026-05-07 18:59 | 34.03610 | -92.00514 | 37135 ft | 589 kts | 79° |
| 2026-05-07 19:00 | 34.05062 | -91.90796 | 37135 ft | 589 kts | 79° |
| 2026-05-07 19:00 | 34.06506 | -91.81072 | 37137 ft | 589 kts | 79° |
| 2026-05-07 19:01 | 34.07943 | -91.71349 | 37132 ft | 589 kts | 80° |
| 2026-05-07 19:01 | 34.09363 | -91.61680 | 37128 ft | 589 kts | 80° |
| 2026-05-07 19:02 | 34.10785 | -91.51944 | 37121 ft | 589 kts | 80° |
| 2026-05-07 19:02 | 34.12201 | -91.42199 | 37128 ft | 589 kts | 80° |
| 2026-05-07 19:03 | 34.13607 | -91.32456 | 37126 ft | 590 kts | 80° |
| 2026-05-07 19:03 | 34.15008 | -91.22701 | 37132 ft | 590 kts | 80° |
| 2026-05-07 19:04 | 34.16402 | -91.12932 | 37117 ft | 590 kts | 80° |
| 2026-05-07 19:04 | 34.17789 | -91.03159 | 37125 ft | 591 kts | 80° |
| 2026-05-07 19:05 | 34.19167 | -90.93388 | 37113 ft | 590 kts | 80° |
| 2026-05-07 19:05 | 34.20537 | -90.83616 | 37113 ft | 590 kts | 80° |
| 2026-05-07 19:06 | 34.21900 | -90.73835 | 37104 ft | 590 kts | 80° |
| 2026-05-07 19:06 | 34.23931 | -90.59155 | 37108 ft | 590 kts | 80° |
| 2026-05-07 19:07 | 34.25275 | -90.49364 | 37108 ft | 590 kts | 80° |
| 2026-05-07 19:07 | 34.26611 | -90.39569 | 37106 ft | 591 kts | 80° |
| 2026-05-07 19:08 | 34.27939 | -90.29772 | 37108 ft | 591 kts | 80° |
| 2026-05-07 19:08 | 34.29260 | -90.19970 | 37096 ft | 591 kts | 80° |
| 2026-05-07 19:09 | 34.30574 | -90.10156 | 37085 ft | 591 kts | 80° |
| 2026-05-07 19:09 | 34.31880 | -90.00341 | 37082 ft | 591 kts | 81° |
| 2026-05-07 19:10 | 34.33170 | -89.90586 | 37085 ft | 591 kts | 81° |
| 2026-05-07 19:10 | 34.34461 | -89.80761 | 37084 ft | 591 kts | 81° |
| 2026-05-07 19:11 | 34.35745 | -89.70931 | 37099 ft | 591 kts | 81° |
| 2026-05-07 19:11 | 34.37021 | -89.61093 | 37103 ft | 592 kts | 81° |
| 2026-05-07 19:12 | 34.38290 | -89.51245 | 37105 ft | 592 kts | 81° |
| 2026-05-07 19:12 | 34.39550 | -89.41404 | 37100 ft | 592 kts | 81° |
| 2026-05-07 19:13 | 34.40802 | -89.31559 | 37092 ft | 592 kts | 81° |
| 2026-05-07 19:13 | 34.42048 | -89.21698 | 37083 ft | 592 kts | 81° |
| 2026-05-07 19:14 | 34.43287 | -89.11830 | 37071 ft | 592 kts | 81° |
| 2026-05-07 19:14 | 34.44517 | -89.01962 | 37074 ft | 593 kts | 81° |
| 2026-05-07 19:15 | 34.45740 | -88.92089 | 37068 ft | 593 kts | 81° |
| 2026-05-07 19:15 | 34.46955 | -88.82214 | 37070 ft | 593 kts | 81° |
| 2026-05-07 19:16 | 34.48162 | -88.72327 | 37069 ft | 593 kts | 81° |
| 2026-05-07 19:16 | 34.49363 | -88.62433 | 37066 ft | 593 kts | 81° |
| 2026-05-07 19:17 | 34.50547 | -88.52606 | 37060 ft | 593 kts | 81° |
| 2026-05-07 19:17 | 34.51730 | -88.42712 | 37057 ft | 593 kts | 81° |
| 2026-05-07 19:18 | 34.52907 | -88.32807 | 37058 ft | 593 kts | 81° |
| 2026-05-07 19:18 | 34.54076 | -88.22901 | 37055 ft | 593 kts | 81° |
| 2026-05-07 19:19 | 34.55236 | -88.12995 | 37054 ft | 593 kts | 81° |
| 2026-05-07 19:19 | 34.56389 | -88.03083 | 37049 ft | 594 kts | 81° |
| 2026-05-07 19:20 | 34.57534 | -87.93161 | 37051 ft | 594 kts | 81° |
| 2026-05-07 19:20 | 34.58671 | -87.83238 | 37044 ft | 593 kts | 82° |
| 2026-05-07 19:21 | 34.59803 | -87.73314 | 37043 ft | 594 kts | 82° |
| 2026-05-07 19:21 | 34.60021 | -87.68329 | 37027 ft | 590 kts | 98° |
| 2026-05-07 19:21 | 34.59208 | -87.63518 | 37052 ft | 577 kts | 116° |
| 2026-05-07 19:22 | 34.56785 | -87.54201 | 37055 ft | 584 kts | 110° |
| 2026-05-07 19:22 | 34.54829 | -87.44631 | 37039 ft | 585 kts | 109° |
| 2026-05-07 19:23 | 34.52931 | -87.35046 | 37032 ft | 585 kts | 109° |
| 2026-05-07 19:23 | 34.51029 | -87.25459 | 37031 ft | 584 kts | 109° |
| 2026-05-07 19:24 | 34.49123 | -87.15893 | 37030 ft | 584 kts | 109° |
| 2026-05-07 19:24 | 34.47204 | -87.06311 | 37032 ft | 584 kts | 109° |
| 2026-05-07 19:25 | 34.45296 | -86.96821 | 37033 ft | 584 kts | 109° |
| 2026-05-07 19:25 | 34.43368 | -86.87272 | 37042 ft | 583 kts | 109° |
| 2026-05-07 19:26 | 34.41433 | -86.77728 | 37040 ft | 583 kts | 109° |
| 2026-05-07 19:26 | 34.39490 | -86.68189 | 37036 ft | 583 kts | 109° |
| 2026-05-07 19:27 | 34.37541 | -86.58661 | 37030 ft | 583 kts | 110° |
| 2026-05-07 19:27 | 34.35585 | -86.49136 | 37019 ft | 583 kts | 110° |
| 2026-05-07 19:28 | 34.33624 | -86.39631 | 37023 ft | 582 kts | 110° |
| 2026-05-07 19:28 | 34.31653 | -86.30115 | 37024 ft | 582 kts | 110° |
| 2026-05-07 19:29 | 34.29678 | -86.20619 | 37024 ft | 582 kts | 110° |
| 2026-05-07 19:29 | 34.27697 | -86.11137 | 37026 ft | 582 kts | 110° |
| 2026-05-07 19:30 | 34.25709 | -86.01659 | 37016 ft | 581 kts | 110° |
| 2026-05-07 19:30 | 34.23718 | -85.92203 | 37007 ft | 581 kts | 110° |
| 2026-05-07 19:31 | 34.21722 | -85.82767 | 36994 ft | 580 kts | 110° |
| 2026-05-07 19:31 | 34.19714 | -85.73313 | 36991 ft | 580 kts | 110° |
| 2026-05-07 19:32 | 34.17704 | -85.63882 | 36987 ft | 580 kts | 110° |
| 2026-05-07 19:32 | 34.15700 | -85.54525 | 36985 ft | 579 kts | 111° |
| 2026-05-07 19:33 | 34.13677 | -85.45110 | 36990 ft | 579 kts | 111° |
| 2026-05-07 19:33 | 34.11659 | -85.35763 | 36649 ft | 571 kts | 111° |
| 2026-05-07 19:34 | 34.10661 | -85.31148 | 36053 ft | 568 kts | 111° |
| 2026-05-07 19:34 | 34.09653 | -85.26500 | 34860 ft | 579 kts | 110° |
| 2026-05-07 19:34 | 34.08628 | -85.21778 | 34120 ft | 579 kts | 110° |
| 2026-05-07 19:34 | 34.07605 | -85.17083 | 33202 ft | 580 kts | 110° |
| 2026-05-07 19:35 | 34.06551 | -85.12359 | 32026 ft | 584 kts | 112° |
| 2026-05-07 19:35 | 34.05125 | -85.07834 | 31221 ft | 572 kts | 122° |
| 2026-05-07 19:35 | 34.03148 | -85.03723 | 29837 ft | 562 kts | 139° |
| 2026-05-07 19:35 | 34.00413 | -85.00543 | 28905 ft | 539 kts | 150° |
| 2026-05-07 19:36 | 33.97565 | -84.97517 | 27402 ft | 549 kts | 148° |
| 2026-05-07 19:36 | 33.94722 | -84.94492 | 26366 ft | 542 kts | 149° |
| 2026-05-07 19:36 | 33.91848 | -84.91485 | 25004 ft | 548 kts | 149° |
| 2026-05-07 19:36 | 33.88983 | -84.88510 | 24120 ft | 537 kts | 149° |
| 2026-05-07 19:37 | 33.86196 | -84.85623 | 22747 ft | 524 kts | 149° |
| 2026-05-07 19:37 | 33.83451 | -84.82789 | 21214 ft | 516 kts | 149° |
| 2026-05-07 19:37 | 33.80744 | -84.79994 | 19747 ft | 508 kts | 149° |
| 2026-05-07 19:37 | 33.78239 | -84.76986 | 18374 ft | 515 kts | 136° |
| 2026-05-07 19:38 | 33.76243 | -84.73407 | 16933 ft | 516 kts | 126° |
| 2026-05-07 19:38 | 33.74695 | -84.69592 | 15563 ft | 513 kts | 117° |
| 2026-05-07 19:38 | 33.73674 | -84.65522 | 14187 ft | 508 kts | 100° |
| 2026-05-07 19:38 | 33.73416 | -84.61348 | 12668 ft | 492 kts | 90° |
| 2026-05-07 19:39 | 33.73353 | -84.57322 | 11655 ft | 466 kts | 90° |
| 2026-05-07 19:39 | 33.73320 | -84.53549 | 11225 ft | 440 kts | 90° |
| 2026-05-07 19:39 | 33.73305 | -84.49982 | 10999 ft | 413 kts | 90° |
| 2026-05-07 19:39 | 33.73301 | -84.47701 | 10900 ft | 395 kts | 90° |
| 2026-05-07 19:40 | 33.73297 | -84.43503 | 10687 ft | 365 kts | 89° |
| 2026-05-07 19:40 | 33.73297 | -84.40533 | 10510 ft | 346 kts | 89° |
| 2026-05-07 19:40 | 33.73297 | -84.37714 | 10322 ft | 330 kts | 90° |
| 2026-05-07 19:40 | 33.73295 | -84.34971 | 9849 ft | 326 kts | 90° |
| 2026-05-07 19:41 | 33.73294 | -84.32274 | 9393 ft | 320 kts | 90° |
| 2026-05-07 19:41 | 33.73297 | -84.29611 | 8881 ft | 317 kts | 90° |
| 2026-05-07 19:41 | 33.73301 | -84.26981 | 8361 ft | 314 kts | 90° |
| 2026-05-07 19:41 | 33.73303 | -84.24371 | 7873 ft | 310 kts | 90° |
| 2026-05-07 19:42 | 33.73305 | -84.21797 | 7376 ft | 307 kts | 90° |
| 2026-05-07 19:42 | 33.73307 | -84.19241 | 6906 ft | 304 kts | 90° |
| 2026-05-07 19:42 | 33.73308 | -84.16701 | 6500 ft | 304 kts | 90° |
| 2026-05-07 19:42 | 33.73318 | -84.14193 | 6384 ft | 294 kts | 89° |
| 2026-05-07 19:43 | 33.73339 | -84.11816 | 6271 ft | 277 kts | 89° |
| 2026-05-07 19:43 | 33.73329 | -84.09555 | 6017 ft | 266 kts | 96° |
| 2026-05-07 19:43 | 33.72752 | -84.07504 | 5592 ft | 257 kts | 127° |
| 2026-05-07 19:43 | 33.71512 | -84.06108 | 5145 ft | 242 kts | 158° |
| 2026-05-07 19:44 | 33.69958 | -84.05698 | 4937 ft | 221 kts | 192° |
| 2026-05-07 19:44 | 33.68568 | -84.06327 | 4959 ft | 213 kts | 220° |
| 2026-05-07 19:44 | 33.67386 | -84.07403 | 4977 ft | 215 kts | 224° |
| 2026-05-07 19:44 | 33.66241 | -84.08516 | 4968 ft | 204 kts | 224° |
| 2026-05-07 19:45 | 33.65385 | -84.09696 | 4975 ft | 175 kts | 250° |
| 2026-05-07 19:45 | 33.65137 | -84.11103 | 4985 ft | 173 kts | 265° |
| 2026-05-07 19:45 | 33.65047 | -84.12549 | 4991 ft | 174 kts | 268° |
| 2026-05-07 19:45 | 33.64998 | -84.14000 | 5018 ft | 174 kts | 269° |
| 2026-05-07 19:46 | 33.64971 | -84.15448 | 5001 ft | 174 kts | 269° |
| 2026-05-07 19:46 | 33.64959 | -84.16884 | 4790 ft | 171 kts | 269° |
| 2026-05-07 19:46 | 33.64954 | -84.18313 | 4589 ft | 171 kts | 270° |
| 2026-05-07 19:46 | 33.64951 | -84.19737 | 4376 ft | 171 kts | 270° |
| 2026-05-07 19:47 | 33.64951 | -84.20683 | 4238 ft | 172 kts | 270° |
| 2026-05-07 19:47 | 33.64951 | -84.22096 | 4025 ft | 167 kts | 270° |
| 2026-05-07 19:47 | 33.64951 | -84.23474 | 3817 ft | 163 kts | 270° |
| 2026-05-07 19:47 | 33.64950 | -84.24826 | 3616 ft | 160 kts | 272° |
| 2026-05-07 19:48 | 33.64950 | -84.26152 | 3415 ft | 158 kts | 271° |
| 2026-05-07 19:48 | 33.64951 | -84.27476 | 3210 ft | 160 kts | 272° |
| 2026-05-07 19:48 | 33.64952 | -84.28820 | 3027 ft | 162 kts | 272° |
| 2026-05-07 19:48 | 33.64952 | -84.30188 | 2806 ft | 165 kts | 271° |
| 2026-05-07 19:49 | 33.64952 | -84.31553 | 2579 ft | 157 kts | 271° |
| 2026-05-07 19:49 | 33.64952 | -84.32772 | 2397 ft | 139 kts | 272° |
| 2026-05-07 19:49 | 33.64953 | -84.33906 | 2197 ft | 133 kts | 272° |
| 2026-05-07 19:49 | 33.64953 | -84.35009 | 2022 ft | 132 kts | 274° |
| 2026-05-07 19:50 | 33.64956 | -84.36111 | 1886 ft | 131 kts | 273° |
| 2026-05-07 19:50 | 33.64953 | -84.37198 | 1704 ft | 130 kts | 274° |
| 2026-05-07 19:50 | 33.64934 | -84.38281 | 1477 ft | 131 kts | 276° |
| 2026-05-07 19:50 | 33.64948 | -84.39394 | 1320 ft | 134 kts | 275° |
| 2026-05-07 19:51 | 33.64952 | -84.40518 | 1121 ft | 135 kts | 271° |
| 2026-05-07 19:51 | 33.64952 | -84.41595 | 1040 ft | 120 kts | 270° |
| 2026-05-07 19:51 | 33.64954 | -84.42387 | 1038 ft | 61 kts | 270° |
| 2026-05-07 19:51 | 33.64952 | -84.42857 | 1037 ft | 57 kts | 270° |
| 2026-05-07 19:52 | 33.64929 | -84.43166 | 1038 ft | 35 kts | 253° |
| 2026-05-07 19:52 | 33.64853 | -84.43299 | 1038 ft | 11 kts | 199° |
| 2026-05-07 19:52 | 33.64824 | -84.43300 | 1038 ft | 4 kts | 163° |
| 2026-05-07 19:52 | 33.64805 | -84.43279 | 1038 ft | 5 kts | 121° |
| 2026-05-07 19:53 | 33.64794 | -84.43232 | 1038 ft | 7 kts | 100° |
| 2026-05-07 19:53 | 33.64777 | -84.43161 | 1038 ft | 10 kts | 126° |
| 2026-05-07 19:53 | 33.64753 | -84.43137 | 1039 ft | 3 kts | 163° |
| 2026-05-07 19:53 | 33.64723 | -84.43136 | 1039 ft | 6 kts | 180° |
| 2026-05-07 19:54 | 33.64651 | -84.43174 | 1039 ft | 18 kts | 226° |
| 2026-05-07 19:54 | 33.64619 | -84.43232 | 1039 ft | 0 kts | 239° |
| 2026-05-07 19:55 | 33.64619 | -84.43233 | 1039 ft | 1 kts | 239° |
| 2026-05-07 19:55 | 33.64608 | -84.43254 | 1039 ft | 5 kts | 239° |
| 2026-05-07 19:55 | 33.64583 | -84.43306 | 1039 ft | 10 kts | 239° |
| 2026-05-07 19:56 | 33.64546 | -84.43393 | 1038 ft | 13 kts | 251° |
| 2026-05-07 19:56 | 33.64542 | -84.43518 | 1038 ft | 17 kts | 271° |
| 2026-05-07 19:56 | 33.64541 | -84.43676 | 1038 ft | 21 kts | 269° |
| 2026-05-07 19:56 | 33.64521 | -84.43868 | 1038 ft | 25 kts | 262° |
| 2026-05-07 19:57 | 33.64448 | -84.44059 | 1038 ft | 28 kts | 218° |
| 2026-05-07 19:57 | 33.64270 | -84.44116 | 1038 ft | 28 kts | 181° |
| 2026-05-07 19:57 | 33.64062 | -84.44117 | 1038 ft | 32 kts | 180° |
| 2026-05-07 19:57 | 33.63931 | -84.44131 | 1038 ft | 10 kts | 226° |
| 2026-05-07 19:58 | 33.63916 | -84.44193 | 1038 ft | 1 kts | 274° |
| 2026-05-07 19:58 | 33.63916 | -84.44194 | 1038 ft | 0 kts | 275° |